Time;durP1;ratioP1;P1;durP2;ratioP2;P2;SDS_P1;SDS_P2;PMS_P1;PMS_P2;Temp;Humidity;BMP_temperature;BMP_pressure;BME280_temperature;BME280_humidity;BME280_pressure;Samples;Min_cycle;Max_cycle;Signal;HPM_P1;HPM_P2
2023/12/08 00:00:39;;;;;;;37.60;18.92;;;4.60;99.90;;;;;;6302038;22;20019;-68
2023/12/08 00:03:25;;;;;;;35.20;19.70;;;4.60;99.90;;;;;;6279913;22;20007;-67
2023/12/08 00:06:11;;;;;;;31.50;17.85;;;4.60;99.90;;;;;;6302598;22;20031;-68
2023/12/08 00:08:57;;;;;;;34.25;18.52;;;4.60;99.90;;;;;;6302201;22;20011;-68
2023/12/08 00:11:43;;;;;;;29.08;17.83;;;4.60;99.90;;;;;;6302611;22;20018;-67
2023/12/08 00:14:29;;;;;;;30.55;17.95;;;4.70;99.90;;;;;;6301458;22;20010;-69
2023/12/08 00:17:15;;;;;;;30.70;16.70;;;4.70;99.90;;;;;;6301196;22;20007;-68
2023/12/08 00:20:01;;;;;;;30.55;18.42;;;4.70;99.90;;;;;;6302322;22;20499;-68
2023/12/08 00:22:47;;;;;;;31.88;18.02;;;4.60;99.90;;;;;;6301531;22;20007;-67
2023/12/08 00:25:33;;;;;;;30.50;17.50;;;4.70;99.90;;;;;;6302182;22;20333;-68
2023/12/08 00:28:19;;;;;;;31.45;18.17;;;4.70;99.90;;;;;;6300457;22;20012;-68
2023/12/08 00:31:05;;;;;;;30.45;16.42;;;4.60;99.90;;;;;;6279898;22;20011;-67
2023/12/08 00:33:51;;;;;;;30.00;18.98;;;4.60;99.90;;;;;;6301708;22;20069;-67
2023/12/08 00:36:39;;;;;;;34.92;18.98;;;4.60;99.90;;;;;;6301892;22;20009;-67
2023/12/08 00:39:25;;;;;;;29.42;16.92;;;4.60;99.90;;;;;;6302585;22;20130;-67
2023/12/08 00:42:11;;;;;;;35.03;19.95;;;4.60;99.90;;;;;;6299958;22;20014;-68
2023/12/08 00:44:57;;;;;;;27.88;15.63;;;4.60;99.90;;;;;;6301342;22;20720;-68
2023/12/08 00:47:43;;;;;;;37.35;17.95;;;4.60;99.90;;;;;;6301721;22;20021;-68
2023/12/08 00:50:29;;;;;;;32.42;18.10;;;4.60;99.90;;;;;;6300799;22;20007;-68
2023/12/08 00:53:15;;;;;;;34.85;18.70;;;4.60;99.90;;;;;;6301882;22;20141;-68
2023/12/08 00:56:04;;;;;;;30.02;17.05;;;4.60;99.90;;;;;;6302959;22;20072;-68
2023/12/08 00:58:50;;;;;;;33.92;18.35;;;4.60;99.90;;;;;;6301613;22;20458;-68
2023/12/08 01:01:36;;;;;;;33.53;18.50;;;4.50;99.90;;;;;;6302721;22;20011;-68
2023/12/08 01:04:21;;;;;;;33.65;18.42;;;4.60;99.90;;;;;;6302317;22;20069;-69
2023/12/08 01:07:09;;;;;;;36.33;18.40;;;4.60;99.90;;;;;;6300986;22;20015;-68
2023/12/08 01:09:55;;;;;;;31.25;16.10;;;4.60;99.90;;;;;;6302227;22;20106;-69
2023/12/08 01:12:42;;;;;;;35.53;19.20;;;4.60;99.90;;;;;;6299678;22;20072;-71
2023/12/08 01:15:28;;;;;;;31.52;18.15;;;4.60;99.90;;;;;;6302302;22;20432;-70
2023/12/08 01:18:14;;;;;;;31.05;17.65;;;4.60;99.90;;;;;;6301588;22;20011;-69
2023/12/08 01:21:00;;;;;;;30.27;17.05;;;4.50;99.90;;;;;;6301567;22;20022;-69
2023/12/08 01:23:46;;;;;;;30.65;17.77;;;4.60;99.90;;;;;;6301609;22;20030;-67
2023/12/08 01:26:32;;;;;;;35.30;17.50;;;4.50;99.90;;;;;;6301252;22;20341;-71
2023/12/08 01:29:18;;;;;;;33.20;18.98;;;4.50;99.90;;;;;;6301847;22;20015;-69
2023/12/08 01:32:04;;;;;;;32.30;16.75;;;4.50;99.90;;;;;;6279081;22;20007;-69
2023/12/08 01:34:50;;;;;;;30.65;17.27;;;4.50;99.90;;;;;;6302038;22;20437;-69
2023/12/08 01:37:36;;;;;;;32.45;17.67;;;4.50;99.90;;;;;;6301288;22;20051;-61
2023/12/08 01:40:22;;;;;;;35.58;18.52;;;4.50;99.90;;;;;;6302008;22;20022;-61
2023/12/08 01:43:12;;;;;;;31.77;16.90;;;4.50;99.90;;;;;;6299578;22;20112;-61
2023/12/08 01:45:58;;;;;;;40.80;19.05;;;4.50;99.90;;;;;;6301774;22;20015;-61
2023/12/08 01:48:45;;;;;;;33.05;16.83;;;4.50;99.90;;;;;;6301320;22;20007;-60
2023/12/08 01:51:31;;;;;;;37.47;17.75;;;4.50;99.90;;;;;;6301110;22;20413;-62
2023/12/08 01:54:17;;;;;;;33.28;18.52;;;4.50;99.90;;;;;;6300750;22;20003;-60
2023/12/08 01:57:04;;;;;;;39.00;19.23;;;4.50;99.90;;;;;;6301718;22;20045;-61
2023/12/08 01:59:51;;;;;;;36.63;19.20;;;4.50;99.90;;;;;;6301317;22;20019;-61
2023/12/08 02:02:37;;;;;;;36.22;18.38;;;4.50;99.90;;;;;;6301603;22;20094;-61
2023/12/08 02:05:25;;;;;;;36.30;20.67;;;4.50;99.90;;;;;;6302276;22;20014;-62
2023/12/08 02:08:13;;;;;;;38.38;19.60;;;4.50;99.90;;;;;;6301349;22;20035;-61
2023/12/08 02:10:59;;;;;;;31.83;17.13;;;4.50;99.90;;;;;;6300523;22;20043;-61
2023/12/08 02:13:45;;;;;;;38.20;19.45;;;4.50;99.90;;;;;;6300465;22;20008;-61
2023/12/08 02:16:42;;;;;;;35.35;17.58;;;4.50;99.90;;;;;;6301370;22;20399;-61
2023/12/08 02:19:30;;;;;;;39.00;20.70;;;4.50;99.90;;;;;;6301451;22;20360;-60
2023/12/08 02:22:17;;;;;;;38.42;19.17;;;4.50;99.90;;;;;;6301931;22;20333;-60
2023/12/08 02:25:04;;;;;;;36.28;19.13;;;4.40;99.90;;;;;;6301789;22;20010;-61
2023/12/08 02:27:50;;;;;;;37.03;20.55;;;4.50;99.90;;;;;;6300721;22;20334;-60
2023/12/08 02:30:36;;;;;;;33.30;16.05;;;4.40;99.90;;;;;;6301790;22;20094;-60
2023/12/08 02:33:32;;;;;;;34.08;18.10;;;4.40;99.90;;;;;;6301438;22;20456;-60
2023/12/08 02:36:18;;;;;;;37.10;18.50;;;4.40;99.90;;;;;;6301130;22;20037;-60
2023/12/08 02:39:06;;;;;;;42.05;20.88;;;4.40;99.90;;;;;;6301813;22;20019;-60
2023/12/08 02:41:52;;;;;;;34.90;18.75;;;4.40;99.90;;;;;;6303788;22;20083;-60
2023/12/08 02:44:38;;;;;;;37.50;19.95;;;4.40;99.90;;;;;;6303658;22;20011;-60
2023/12/08 02:47:24;;;;;;;39.20;19.33;;;4.40;99.90;;;;;;6303933;22;20035;-60
2023/12/08 02:50:10;;;;;;;33.17;17.90;;;4.40;99.90;;;;;;6303701;22;20011;-60
2023/12/08 02:52:56;;;;;;;34.72;18.55;;;4.50;99.90;;;;;;6302311;22;20003;-60
2023/12/08 02:55:42;;;;;;;38.15;19.48;;;4.40;99.90;;;;;;6302375;22;20441;-60
2023/12/08 02:58:28;;;;;;;40.00;21.30;;;4.50;99.90;;;;;;6303044;22;20090;-60
2023/12/08 03:01:17;;;;;;;35.45;18.65;;;4.50;99.90;;;;;;6302517;22;20019;-60
2023/12/08 03:04:03;;;;;;;40.42;18.77;;;4.50;99.90;;;;;;6303680;22;20438;-60
2023/12/08 03:06:49;;;;;;;36.33;18.70;;;4.50;99.90;;;;;;6303373;22;20452;-60
2023/12/08 03:09:35;;;;;;;38.60;20.73;;;4.50;99.90;;;;;;6302914;22;20030;-60
2023/12/08 03:12:20;;;;;;;38.30;19.52;;;4.50;99.90;;;;;;6302639;22;20011;-60
2023/12/08 03:15:07;;;;;;;38.45;19.23;;;4.60;99.90;;;;;;6303586;22;20007;-60
2023/12/08 03:17:53;;;;;;;37.70;19.50;;;4.60;99.90;;;;;;6303699;22;20015;-60
2023/12/08 03:20:39;;;;;;;39.10;21.38;;;4.60;99.90;;;;;;6302765;22;20395;-60
2023/12/08 03:23:24;;;;;;;37.30;19.05;;;4.60;99.90;;;;;;6303224;22;20448;-60
2023/12/08 03:26:10;;;;;;;36.05;20.23;;;4.60;99.90;;;;;;6301970;22;20471;-61
2023/12/08 03:28:56;;;;;;;35.58;20.23;;;4.60;99.90;;;;;;6302498;22;20007;-60
2023/12/08 03:31:43;;;;;;;36.83;20.88;;;4.60;99.90;;;;;;6303327;22;20011;-60
2023/12/08 03:34:29;;;;;;;34.45;19.85;;;4.60;99.90;;;;;;6302907;22;20014;-60
2023/12/08 03:37:15;;;;;;;36.72;19.63;;;4.60;99.90;;;;;;6302335;22;20134;-60
2023/12/08 03:40:01;;;;;;;38.83;20.33;;;4.60;99.90;;;;;;6302188;22;20153;-60
2023/12/08 03:42:47;;;;;;;35.67;20.23;;;4.60;99.90;;;;;;6302575;22;20023;-61
2023/12/08 03:45:33;;;;;;;38.03;20.50;;;4.60;99.90;;;;;;6302345;22;20044;-61
2023/12/08 03:48:19;;;;;;;40.22;20.17;;;4.60;99.90;;;;;;6301916;22;20011;-61
2023/12/08 03:51:05;;;;;;;35.67;19.02;;;4.60;99.90;;;;;;6302270;22;20015;-60
2023/12/08 03:53:51;;;;;;;35.58;18.35;;;4.60;99.90;;;;;;6302165;22;20445;-61
2023/12/08 03:56:37;;;;;;;34.88;19.83;;;4.70;99.90;;;;;;6302722;22;20047;-61
2023/12/08 03:59:23;;;;;;;39.55;20.25;;;4.70;99.90;;;;;;6302876;22;20007;-61
2023/12/08 04:02:09;;;;;;;37.17;20.08;;;4.60;99.90;;;;;;6302331;22;20433;-60
2023/12/08 04:04:55;;;;;;;39.83;20.25;;;4.70;99.90;;;;;;6301625;22;20007;-60
2023/12/08 04:07:41;;;;;;;34.72;19.30;;;4.70;99.90;;;;;;6302976;22;20015;-60
2023/12/08 04:10:27;;;;;;;33.97;19.35;;;4.70;99.90;;;;;;6303432;22;20035;-61
2023/12/08 04:13:12;;;;;;;39.90;20.00;;;4.70;99.90;;;;;;6298534;22;20011;-61
2023/12/08 04:15:58;;;;;;;33.75;18.90;;;4.70;99.90;;;;;;6300727;22;20027;-62
2023/12/08 04:18:44;;;;;;;35.53;18.77;;;4.70;99.90;;;;;;6302111;22;20349;-61
2023/12/08 04:21:30;;;;;;;35.75;19.77;;;4.70;99.90;;;;;;6279491;22;20027;-62
2023/12/08 04:24:16;;;;;;;36.22;20.42;;;4.70;99.90;;;;;;6302011;22;20318;-61
2023/12/08 04:27:02;;;;;;;34.72;17.75;;;4.70;99.90;;;;;;6302185;22;20373;-61
2023/12/08 04:29:48;;;;;;;40.33;21.67;;;4.70;99.90;;;;;;6301709;22;20022;-62
2023/12/08 04:32:34;;;;;;;37.13;21.15;;;4.70;99.90;;;;;;6301546;22;20470;-61
2023/12/08 04:35:21;;;;;;;37.00;20.13;;;4.80;99.90;;;;;;6300967;22;20037;-61
2023/12/08 04:38:07;;;;;;;35.40;19.98;;;4.70;99.90;;;;;;6301217;22;20019;-61
2023/12/08 04:40:52;;;;;;;38.53;19.38;;;4.70;99.90;;;;;;6300561;22;20401;-61
2023/12/08 04:43:38;;;;;;;36.35;19.75;;;4.70;99.90;;;;;;6302482;22;20007;-61
2023/12/08 04:46:24;;;;;;;39.17;21.13;;;4.70;99.90;;;;;;6300453;22;20445;-61
2023/12/08 04:49:10;;;;;;;39.10;21.00;;;4.70;99.90;;;;;;6301854;22;20069;-61
2023/12/08 04:51:56;;;;;;;37.67;21.13;;;4.70;99.90;;;;;;6301477;22;20069;-61
2023/12/08 04:54:42;;;;;;;36.38;19.73;;;4.70;99.90;;;;;;6301529;22;20441;-61
2023/12/08 04:57:28;;;;;;;39.97;20.50;;;4.60;99.90;;;;;;6300900;22;20379;-62
2023/12/08 05:00:14;;;;;;;37.22;21.48;;;4.60;99.90;;;;;;6301152;22;20015;-61
2023/12/08 05:03:00;;;;;;;34.65;19.45;;;4.60;99.90;;;;;;6300635;22;20007;-61
2023/12/08 05:05:46;;;;;;;36.53;19.40;;;4.60;99.90;;;;;;6301722;22;20061;-61
2023/12/08 05:08:32;;;;;;;40.75;22.33;;;4.60;99.90;;;;;;6301457;22;20333;-61
2023/12/08 05:11:20;;;;;;;34.85;18.90;;;4.60;99.90;;;;;;6302610;22;20007;-61
2023/12/08 05:14:06;;;;;;;37.08;20.40;;;4.60;99.90;;;;;;6299913;22;20011;-61
2023/12/08 05:16:52;;;;;;;34.88;20.23;;;4.60;99.90;;;;;;6301049;22;20018;-61
2023/12/08 05:19:38;;;;;;;31.45;18.80;;;4.60;99.90;;;;;;6302047;22;20042;-61
2023/12/08 05:22:23;;;;;;;37.20;20.88;;;4.70;99.90;;;;;;6301926;22;20008;-60
2023/12/08 05:25:09;;;;;;;33.40;18.60;;;4.70;99.90;;;;;;6301658;22;20015;-62
2023/12/08 05:27:55;;;;;;;31.25;18.30;;;4.60;99.90;;;;;;6301834;22;20060;-60
2023/12/08 05:30:41;;;;;;;36.13;19.17;;;4.60;99.90;;;;;;6300714;22;20041;-60
2023/12/08 05:33:27;;;;;;;35.33;18.52;;;4.70;99.90;;;;;;6301108;22;20221;-61
2023/12/08 05:36:13;;;;;;;37.25;21.02;;;4.70;99.90;;;;;;6301656;22;20337;-61
2023/12/08 05:38:59;;;;;;;35.30;19.08;;;4.70;99.90;;;;;;6300149;22;20019;-61
2023/12/08 05:41:46;;;;;;;33.10;18.67;;;4.70;99.90;;;;;;6302823;22;20094;-63
2023/12/08 05:44:31;;;;;;;33.58;18.75;;;4.70;99.90;;;;;;6302294;22;20011;-61
2023/12/08 05:47:17;;;;;;;31.77;18.33;;;4.60;99.90;;;;;;6301586;22;20018;-61
2023/12/08 05:50:04;;;;;;;35.85;20.25;;;4.60;99.90;;;;;;6301180;22;20039;-61
2023/12/08 05:52:50;;;;;;;28.95;18.48;;;4.60;99.90;;;;;;6302338;22;20517;-62
2023/12/08 05:55:36;;;;;;;34.40;20.33;;;4.60;99.90;;;;;;6301973;22;20018;-61
2023/12/08 05:58:24;;;;;;;33.75;19.30;;;4.60;99.90;;;;;;6301480;22;20050;-61
2023/12/08 06:01:16;;;;;;;33.90;20.60;;;4.60;99.90;;;;;;6302011;22;20023;-61
2023/12/08 06:04:02;;;;;;;33.38;17.67;;;4.60;99.90;;;;;;6302905;22;20007;-61
2023/12/08 06:06:48;;;;;;;31.95;17.95;;;4.60;99.90;;;;;;6303527;22;20015;-62
2023/12/08 06:09:34;;;;;;;36.55;20.55;;;4.60;99.90;;;;;;6302580;22;20015;-62
2023/12/08 06:12:20;;;;;;;30.20;19.25;;;4.60;99.90;;;;;;6302000;22;20003;-61
2023/12/08 06:15:07;;;;;;;31.83;18.60;;;4.60;99.90;;;;;;6303743;22;20071;-61
2023/12/08 06:17:53;;;;;;;35.70;20.58;;;4.60;99.90;;;;;;6305772;22;20003;-61
2023/12/08 06:20:39;;;;;;;34.70;20.20;;;4.60;99.90;;;;;;6303625;22;20015;-61
2023/12/08 06:23:25;;;;;;;35.83;19.48;;;4.60;99.90;;;;;;6301844;22;20011;-61
2023/12/08 06:26:10;;;;;;;30.33;17.95;;;4.50;99.90;;;;;;6303066;22;20021;-62
2023/12/08 06:28:56;;;;;;;34.38;19.38;;;4.50;99.90;;;;;;6281006;22;20014;-61
2023/12/08 06:31:43;;;;;;;32.58;19.75;;;4.60;99.90;;;;;;6281492;22;20008;-61
2023/12/08 06:34:29;;;;;;;33.50;20.15;;;4.50;99.90;;;;;;6303931;22;20038;-61
2023/12/08 06:37:16;;;;;;;32.20;18.90;;;4.50;99.90;;;;;;6302721;22;20022;-61
2023/12/08 06:40:02;;;;;;;32.85;21.98;;;4.40;99.90;;;;;;6303630;22;20338;-62
2023/12/08 06:42:49;;;;;;;32.63;19.45;;;4.40;99.90;;;;;;6304724;22;20015;-60
2023/12/08 06:45:35;;;;;;;32.30;18.67;;;4.30;99.90;;;;;;6302741;22;20089;-62
2023/12/08 06:48:23;;;;;;;35.30;19.48;;;4.30;99.90;;;;;;6303738;22;20004;-65
2023/12/08 06:51:09;;;;;;;32.00;19.38;;;4.30;99.90;;;;;;6303813;22;20298;-65
2023/12/08 06:53:56;;;;;;;36.08;21.25;;;4.20;99.90;;;;;;6303341;22;20035;-71
2023/12/08 06:56:42;;;;;;;34.95;20.58;;;4.20;99.90;;;;;;6302690;22;20011;-66
2023/12/08 06:59:28;;;;;;;36.50;19.95;;;4.10;99.90;;;;;;6303272;22;20015;-68
2023/12/08 07:02:15;;;;;;;33.17;19.38;;;4.20;99.90;;;;;;6301928;22;20003;-68
2023/12/08 07:05:01;;;;;;;35.22;18.95;;;4.10;99.90;;;;;;6303218;22;20314;-68
2023/12/08 07:07:47;;;;;;;30.20;19.00;;;4.10;99.90;;;;;;6304791;22;20012;-68
2023/12/08 07:10:33;;;;;;;33.13;19.63;;;4.10;99.90;;;;;;6302899;22;20485;-69
2023/12/08 07:13:20;;;;;;;34.38;19.27;;;4.10;99.90;;;;;;6301564;22;20465;-68
2023/12/08 07:16:09;;;;;;;34.65;19.75;;;4.00;99.90;;;;;;6302049;22;20011;-68
2023/12/08 07:18:55;;;;;;;34.22;18.30;;;4.10;99.90;;;;;;6302559;22;20046;-69
2023/12/08 07:21:42;;;;;;;30.13;18.42;;;4.10;99.90;;;;;;6303683;22;20465;-68
2023/12/08 07:24:28;;;;;;;32.75;17.70;;;4.10;99.90;;;;;;6280488;22;20015;-68
2023/12/08 07:27:14;;;;;;;34.65;18.52;;;4.00;99.90;;;;;;6303173;22;20014;-68
2023/12/08 07:30:00;;;;;;;35.97;20.42;;;4.00;99.90;;;;;;6302187;22;20007;-67
2023/12/08 07:32:46;;;;;;;30.55;19.52;;;3.90;99.90;;;;;;6302953;22;20007;-67
2023/12/08 07:35:32;;;;;;;36.72;20.70;;;4.00;99.90;;;;;;6301337;22;20003;-68
2023/12/08 07:38:18;;;;;;;33.33;20.17;;;3.90;99.90;;;;;;6301076;22;20050;-68
2023/12/08 07:41:04;;;;;;;36.88;20.92;;;3.90;99.90;;;;;;6302841;22;20011;-68
2023/12/08 07:43:54;;;;;;;30.05;17.40;;;4.00;99.90;;;;;;6302460;22;20011;-68
2023/12/08 07:46:40;;;;;;;32.88;19.05;;;3.90;99.90;;;;;;6302561;22;20012;-68
2023/12/08 07:49:27;;;;;;;35.60;19.38;;;3.90;99.90;;;;;;6303007;22;20004;-74
2023/12/08 07:52:14;;;;;;;30.75;17.55;;;3.90;99.90;;;;;;6302038;22;20015;-74
2023/12/08 07:55:00;;;;;;;37.65;19.30;;;3.90;99.90;;;;;;6302867;22;20007;-74
2023/12/08 07:57:46;;;;;;;35.05;18.95;;;3.90;99.90;;;;;;6279322;22;20053;-75
2023/12/08 08:00:32;;;;;;;31.13;18.45;;;3.90;99.90;;;;;;6302124;22;20019;-74
2023/12/08 08:03:18;;;;;;;30.98;18.67;;;3.90;99.90;;;;;;6302575;22;20106;-74
2023/12/08 08:06:04;;;;;;;35.40;20.55;;;3.90;99.90;;;;;;6301392;22;20007;-73
2023/12/08 08:08:50;;;;;;;29.00;17.88;;;3.80;99.90;;;;;;6300330;22;20011;-73
2023/12/08 08:11:36;;;;;;;33.20;17.70;;;3.80;99.90;;;;;;6302965;22;20007;-73
2023/12/08 08:14:22;;;;;;;33.92;18.08;;;3.80;99.90;;;;;;6302856;22;20015;-77
2023/12/08 08:17:08;;;;;;;32.50;19.60;;;3.80;99.90;;;;;;6301879;22;20011;-78
2023/12/08 08:19:54;;;;;;;32.60;19.33;;;3.80;99.90;;;;;;6300444;22;20070;-74
2023/12/08 08:22:40;;;;;;;31.75;17.55;;;3.70;99.90;;;;;;6302897;22;20037;-73
2023/12/08 08:25:26;;;;;;;29.40;18.08;;;3.80;99.90;;;;;;6301916;22;20065;-73
2023/12/08 08:28:12;;;;;;;34.40;19.42;;;3.80;99.90;;;;;;6301613;22;20030;-74
2023/12/08 08:30:58;;;;;;;31.35;18.33;;;3.80;99.90;;;;;;6302218;22;20019;-73
2023/12/08 08:33:44;;;;;;;34.95;19.55;;;3.70;99.90;;;;;;6298595;22;20315;-73
2023/12/08 08:36:30;;;;;;;31.55;18.02;;;3.70;99.90;;;;;;6280892;22;20357;-72
2023/12/08 08:39:16;;;;;;;31.02;17.50;;;3.70;99.90;;;;;;6301557;22;20023;-72
2023/12/08 08:42:02;;;;;;;32.22;17.27;;;3.70;99.90;;;;;;6298053;22;20089;-72
2023/12/08 08:44:48;;;;;;;31.58;18.63;;;3.70;99.90;;;;;;6299845;22;20509;-72
2023/12/08 08:47:34;;;;;;;31.00;17.30;;;3.70;99.90;;;;;;6300296;22;20061;-72
2023/12/08 08:50:22;;;;;;;30.77;18.23;;;3.70;99.90;;;;;;6300567;22;20008;-71
2023/12/08 08:53:08;;;;;;;29.25;16.77;;;3.70;99.90;;;;;;6299978;22;20011;-72
2023/12/08 08:55:53;;;;;;;28.90;18.15;;;3.70;99.90;;;;;;6300732;22;20093;-72
2023/12/08 08:58:39;;;;;;;32.20;17.45;;;3.70;99.90;;;;;;6301372;22;20007;-72
2023/12/08 09:01:25;;;;;;;30.35;18.80;;;3.80;99.90;;;;;;6302278;22;20011;-71
2023/12/08 09:04:12;;;;;;;30.38;17.27;;;3.80;99.90;;;;;;6301390;22;20266;-70
2023/12/08 09:06:58;;;;;;;28.63;16.05;;;3.80;99.90;;;;;;6301673;22;20033;-70
2023/12/08 09:09:44;;;;;;;26.58;16.73;;;3.80;99.90;;;;;;6298401;22;20613;-71
2023/12/08 09:12:30;;;;;;;27.83;16.75;;;3.80;99.90;;;;;;6302428;22;20011;-71
2023/12/08 09:15:17;;;;;;;26.60;15.48;;;3.90;99.90;;;;;;6301977;22;20425;-71
2023/12/08 09:18:03;;;;;;;27.95;16.38;;;3.90;99.90;;;;;;6300081;22;20017;-73
2023/12/08 09:20:49;;;;;;;26.13;15.68;;;4.00;99.90;;;;;;6302089;22;20408;-70
2023/12/08 09:23:35;;;;;;;22.83;13.68;;;4.00;99.90;;;;;;6299192;22;20038;-70
2023/12/08 09:26:20;;;;;;;23.23;15.57;;;4.00;99.90;;;;;;6298875;22;20010;-70
2023/12/08 09:29:06;;;;;;;24.58;14.75;;;4.00;99.90;;;;;;6300554;22;20018;-70
2023/12/08 09:31:52;;;;;;;26.10;16.45;;;4.10;99.90;;;;;;6301587;22;20472;-70
2023/12/08 09:34:40;;;;;;;25.83;15.85;;;4.10;99.90;;;;;;6302115;22;20047;-71
2023/12/08 09:37:26;;;;;;;23.35;14.77;;;4.20;99.90;;;;;;6300184;22;20023;-70
2023/12/08 09:40:15;;;;;;;25.73;15.93;;;4.20;99.90;;;;;;6299110;22;20030;-71
2023/12/08 09:43:15;;;;;;;22.42;13.43;;;4.30;99.90;;;;;;6300866;22;20011;-71
2023/12/08 09:46:02;;;;;;;24.48;16.40;;;4.30;99.90;;;;;;6300399;22;20085;-71
2023/12/08 09:48:51;;;;;;;23.52;14.38;;;4.30;99.90;;;;;;6303571;22;20011;-71
2023/12/08 09:51:37;;;;;;;24.23;15.80;;;4.20;99.90;;;;;;6305300;22;20060;-71
2023/12/08 09:54:23;;;;;;;24.27;14.98;;;4.30;99.90;;;;;;6304461;22;20042;-71
2023/12/08 09:57:10;;;;;;;24.20;14.63;;;4.30;99.90;;;;;;6304151;22;20201;-70
2023/12/08 09:59:59;;;;;;;26.58;14.93;;;4.30;99.90;;;;;;6302384;22;20030;-71
2023/12/08 10:02:45;;;;;;;25.38;14.40;;;4.30;99.90;;;;;;6304942;22;20444;-70
2023/12/08 10:05:31;;;;;;;24.95;15.15;;;4.40;99.90;;;;;;6304378;22;20094;-70
2023/12/08 10:08:17;;;;;;;22.40;14.95;;;4.40;99.90;;;;;;6305592;22;20100;-70
2023/12/08 10:11:05;;;;;;;25.35;16.45;;;4.40;99.90;;;;;;6302362;22;20318;-70
2023/12/08 10:13:52;;;;;;;24.58;15.32;;;4.40;99.90;;;;;;6304549;22;20003;-70
2023/12/08 10:16:38;;;;;;;25.17;16.05;;;4.40;99.90;;;;;;6302628;22;20098;-69
2023/12/08 10:19:24;;;;;;;25.77;15.32;;;4.30;99.90;;;;;;6303809;22;20452;-70
2023/12/08 10:22:10;;;;;;;25.50;14.95;;;4.30;99.90;;;;;;6302979;22;20034;-70
2023/12/08 10:24:56;;;;;;;25.02;15.05;;;4.40;99.90;;;;;;6305113;22;20564;-70
2023/12/08 10:27:47;;;;;;;27.83;14.18;;;4.40;99.90;;;;;;6303409;22;20011;-70
2023/12/08 10:30:33;;;;;;;27.25;15.85;;;4.40;99.90;;;;;;6305370;22;20078;-69
2023/12/08 10:33:23;;;;;;;25.92;16.38;;;4.40;99.90;;;;;;6302573;22;20007;-69
2023/12/08 10:36:09;;;;;;;23.83;14.90;;;4.30;99.90;;;;;;6305240;22;20052;-69
2023/12/08 10:38:55;;;;;;;25.60;15.63;;;4.30;99.90;;;;;;6303550;22;20105;-70
2023/12/08 10:41:41;;;;;;;23.95;14.50;;;4.30;99.90;;;;;;6304191;22;20022;-71
2023/12/08 10:44:27;;;;;;;28.20;15.82;;;4.30;99.90;;;;;;6304154;22;20031;-72
2023/12/08 10:47:13;;;;;;;23.75;14.00;;;4.30;99.90;;;;;;6303271;22;20017;-71
2023/12/08 10:50:00;;;;;;;26.27;16.23;;;4.20;99.90;;;;;;6303454;22;20505;-71
2023/12/08 10:52:47;;;;;;;24.98;15.77;;;4.20;99.90;;;;;;6302074;22;20007;-69
2023/12/08 10:55:33;;;;;;;24.35;15.38;;;4.20;99.90;;;;;;6304791;22;20011;-73
2023/12/08 10:58:21;;;;;;;20.35;13.95;;;4.30;99.90;;;;;;6303981;22;20007;-72
2023/12/08 11:01:12;;;;;;;23.33;14.13;;;4.30;99.90;;;;;;6303531;22;20019;-73
2023/12/08 11:04:03;;;;;;;26.17;15.55;;;4.30;99.90;;;;;;6303280;22;20019;-73
2023/12/08 11:06:59;;;;;;;24.75;14.18;;;4.30;99.90;;;;;;6303712;22;20011;-74
2023/12/08 11:09:46;;;;;;;23.77;14.55;;;4.30;99.90;;;;;;6301339;22;20050;-73
2023/12/08 11:12:38;;;;;;;22.58;14.07;;;4.30;99.90;;;;;;6302648;22;20098;-72
2023/12/08 11:15:27;;;;;;;20.73;13.65;;;4.30;99.90;;;;;;6301380;22;20010;-73
2023/12/08 11:18:22;;;;;;;21.63;12.98;;;4.30;99.90;;;;;;6299869;22;20003;-74
2023/12/08 11:21:09;;;;;;;21.35;14.45;;;4.40;99.90;;;;;;6301378;22;20023;-73
2023/12/08 11:23:56;;;;;;;24.17;13.27;;;4.40;99.90;;;;;;6300633;22;20441;-74
2023/12/08 11:26:58;;;;;;;20.50;13.65;;;4.40;99.90;;;;;;6304003;22;20034;-74
2023/12/08 11:29:55;;;;;;;28.42;13.57;;;4.40;99.90;;;;;;6301161;22;20239;-73
2023/12/08 11:33:01;;;;;;;24.33;14.68;;;4.50;99.90;;;;;;6302709;22;20015;-73
2023/12/08 11:35:52;;;;;;;27.48;14.25;;;4.50;99.90;;;;;;6302458;22;20238;-75
2023/12/08 11:38:38;;;;;;;22.02;12.50;;;4.50;99.90;;;;;;6301829;22;20149;-72
2023/12/08 11:41:27;;;;;;;25.40;14.32;;;4.50;99.90;;;;;;6301350;22;20399;-72
2023/12/08 11:44:13;;;;;;;21.27;13.57;;;4.50;99.90;;;;;;6301236;22;20018;-72
2023/12/08 11:47:03;;;;;;;20.67;13.68;;;4.50;99.90;;;;;;6302691;22;20015;-71
2023/12/08 11:49:49;;;;;;;19.98;12.30;;;4.50;99.90;;;;;;6302199;22;20003;-72
2023/12/08 11:52:37;;;;;;;19.20;11.50;;;4.50;99.90;;;;;;6302838;22;20007;-72
2023/12/08 11:55:24;;;;;;;20.27;12.77;;;4.60;99.90;;;;;;6299547;22;20007;-70
2023/12/08 11:58:11;;;;;;;20.33;12.35;;;4.60;99.90;;;;;;6299459;22;20467;-73
2023/12/08 12:01:00;;;;;;;21.92;13.60;;;4.60;99.90;;;;;;6300717;22;20457;-69
2023/12/08 12:03:45;;;;;;;23.52;13.05;;;4.60;99.90;;;;;;6302369;22;20434;-76
2023/12/08 12:06:32;;;;;;;19.13;12.35;;;4.60;99.90;;;;;;6301659;22;20084;-73
2023/12/08 12:09:19;;;;;;;18.27;12.00;;;4.60;99.90;;;;;;6301535;22;20011;-75
2023/12/08 12:12:24;;;;;;;25.42;14.25;;;4.70;99.90;;;;;;6298712;22;20025;-76
2023/12/08 12:15:11;;;;;;;20.27;12.65;;;4.60;99.90;;;;;;6300408;22;20000;-75
2023/12/08 12:17:58;;;;;;;21.25;13.90;;;4.60;99.90;;;;;;6300505;22;20092;-75
2023/12/08 12:20:45;;;;;;;20.35;11.93;;;4.70;99.90;;;;;;6303401;22;20093;-74
2023/12/08 12:23:31;;;;;;;16.95;11.35;;;4.70;99.90;;;;;;6305286;22;20056;-74
2023/12/08 12:26:20;;;;;;;18.05;11.63;;;4.70;99.90;;;;;;6302796;22;20344;-74
2023/12/08 12:29:06;;;;;;;21.23;12.40;;;4.70;99.90;;;;;;6302779;22;20011;-75
2023/12/08 12:31:52;;;;;;;19.65;11.98;;;4.70;99.90;;;;;;6302279;22;20073;-74
2023/12/08 12:34:39;;;;;;;20.02;12.70;;;4.70;99.90;;;;;;6300725;22;20019;-76
2023/12/08 12:37:25;;;;;;;21.60;12.75;;;4.70;99.90;;;;;;6296159;22;20061;-74
2023/12/08 12:40:12;;;;;;;18.73;12.50;;;4.70;99.90;;;;;;6300991;22;20334;-77
2023/12/08 12:42:58;;;;;;;26.05;16.27;;;4.70;99.90;;;;;;6301696;22;20189;-72
2023/12/08 12:45:44;;;;;;;22.48;13.50;;;4.70;99.90;;;;;;6300116;22;20353;-71
2023/12/08 12:48:29;;;;;;;20.90;13.00;;;4.70;99.90;;;;;;6279672;22;20011;-73
2023/12/08 12:51:34;;;;;;;18.13;11.43;;;4.70;99.90;;;;;;6302207;22;20453;-74
2023/12/08 12:54:37;;;;;;;21.95;11.95;;;4.70;99.90;;;;;;6300665;22;20018;-73
2023/12/08 12:57:44;;;;;;;16.38;11.02;;;4.70;99.90;;;;;;6300829;22;20348;-74
2023/12/08 13:00:34;;;;;;;18.40;11.38;;;4.70;99.90;;;;;;6299866;22;20379;-73
2023/12/08 13:03:21;;;;;;;20.33;12.60;;;4.70;99.90;;;;;;6299644;22;20015;-74
2023/12/08 13:06:07;;;;;;;19.95;13.25;;;4.70;99.90;;;;;;6300932;22;20007;-74
2023/12/08 13:08:53;;;;;;;21.55;13.23;;;4.70;99.90;;;;;;6300676;22;20011;-74
2023/12/08 13:11:39;;;;;;;21.10;13.00;;;4.70;99.90;;;;;;6300927;22;20087;-74
2023/12/08 13:14:25;;;;;;;18.35;12.38;;;4.70;99.90;;;;;;6294744;22;20091;-74
2023/12/08 13:17:11;;;;;;;22.70;13.60;;;4.70;99.90;;;;;;6298691;22;20353;-74
2023/12/08 13:19:57;;;;;;;21.05;13.68;;;4.80;99.90;;;;;;6300605;22;20515;-74
2023/12/08 13:22:43;;;;;;;19.95;12.18;;;4.70;99.90;;;;;;6298684;22;20439;-75
2023/12/08 13:25:29;;;;;;;21.38;12.35;;;4.70;99.90;;;;;;6299169;22;20444;-74
2023/12/08 13:28:15;;;;;;;24.95;13.50;;;4.70;99.90;;;;;;6298511;22;20398;-74
2023/12/08 13:31:01;;;;;;;21.75;12.75;;;4.70;99.90;;;;;;6299185;22;20106;-74
2023/12/08 13:33:47;;;;;;;18.40;12.15;;;4.70;99.90;;;;;;6300098;22;20041;-74
2023/12/08 13:36:33;;;;;;;23.58;13.52;;;4.70;99.90;;;;;;6296732;22;20076;-74
2023/12/08 13:39:20;;;;;;;20.20;13.57;;;4.70;99.90;;;;;;6293463;22;20049;-73
2023/12/08 13:42:06;;;;;;;20.13;13.65;;;4.60;99.90;;;;;;6296134;22;20097;-74
2023/12/08 13:44:52;;;;;;;18.52;12.43;;;4.70;99.90;;;;;;6301252;22;20034;-74
2023/12/08 13:47:38;;;;;;;23.00;13.50;;;4.70;99.90;;;;;;6299857;22;20508;-73
2023/12/08 13:50:25;;;;;;;20.77;13.57;;;4.70;99.90;;;;;;6273564;22;20022;-73
2023/12/08 13:53:11;;;;;;;20.20;13.25;;;4.70;99.90;;;;;;6299220;22;20019;-73
2023/12/08 13:55:57;;;;;;;24.02;13.15;;;4.60;99.90;;;;;;6300819;22;20068;-74
2023/12/08 13:58:43;;;;;;;19.35;13.15;;;4.60;99.90;;;;;;6301355;22;20384;-74
2023/12/08 14:01:29;;;;;;;20.13;12.55;;;4.60;99.90;;;;;;6296006;22;20023;-74
2023/12/08 14:04:15;;;;;;;18.00;11.35;;;4.60;99.90;;;;;;6300105;22;20018;-75
2023/12/08 14:07:01;;;;;;;20.70;12.93;;;4.60;99.90;;;;;;6299853;22;20007;-75
2023/12/08 14:09:47;;;;;;;24.02;13.20;;;4.60;99.90;;;;;;6278535;22;20437;-75
2023/12/08 14:12:33;;;;;;;20.17;13.57;;;4.60;99.90;;;;;;6297693;22;20011;-74
2023/12/08 14:15:19;;;;;;;24.00;13.63;;;4.60;99.90;;;;;;6298592;22;20414;-76